イスタンブル の空港の天気 - METARとTAF

アタテュルク国際空港(イスタンブル) ( LTBA / IST ) - トルコ イスタンブル
飛行場実況気象(Metar)
観測時間01/20 05:50 EET (01/20 02:50 UTC)
風向・風速東 2m/s
視程6000m
天気現象
全天の8割程度の雲 雲底高度 1220m
気温9℃
湿度76%
気圧1020hPa
METARLTBA 200250Z 08004KT 050V110 6000 BKN040 09/05 Q1020 RERA NOSIG RMK RWY17L 00000KT RWY05 06004KT RWY23 08005KT
過去の天気等 Google飛行場航空写真 Wunderground天気予報

過去48時間のMETAR

飛行場予報(TAF)
発表時間: 1/20 01:40 EET (1/19 22:40 UTC)
予報対象時間: 20日3時 EET ~ 21日9時 EET
風向・風速南東 4m/s
視程6000m
全天の8割程度の雲 雲底高度 980m
20日3時 EET ~ 20日6時 EET に徐々に
視程3200m
天気現象もや
20日3時 EET ~ 20日6時 EET に一時的に
天気現象弱い雨
少しの雲 雲底高度 550m
全天の8割程度の雲 雲底高度 760m
20日6時 EET ~ 20日10時 EET に一時的に
天気現象弱い雨
全天の4割程度の雲 雲底高度 300m
全天の8割程度の雲 雲底高度 610m
20日9時 EET ~ 20日12時 EET に徐々に
視程10km以上
天気現象運行に影響にある天気現象が終了
20日13時 EET ~ 20日16時 EET に徐々に
少しの雲 雲底高度 1010m
20日17時 EET ~ 20日21時 EET に一時的に
天気現象弱いしゅう雨
全天の8割程度の雲 雲底高度 760m
21日2時 EET ~ 21日6時 EET に徐々に
全天の8割程度の雲 雲底高度 760m
TAF LTBA 192240Z 2000/2106 14007KT 6000 BKN032
BECMG 2000/2003 3200 BR
TEMPO 2000/2003 -RA FEW018 BKN025
TEMPO 2003/2007 -RA SCT010 BKN020
BECMG 2006/2009 9999 NSW
BECMG 2010/2013 FEW033
TEMPO 2014/2018 -SHRA BKN025
BECMG 2023/2103 BKN025